sensor_id;sensor_type;location;lat;lon;timestamp;P1;durP1;ratioP1;P2;durP2;ratioP2
66270;SDS011;53063;39.614;8.814;2023-02-03T00:01:31;11.90;;;4.22;;
66270;SDS011;53063;39.614;8.814;2023-02-03T00:03:57;8.85;;;4.70;;
66270;SDS011;53063;39.614;8.814;2023-02-03T00:06:23;13.80;;;4.63;;
66270;SDS011;53063;39.614;8.814;2023-02-03T00:08:51;10.38;;;4.30;;
66270;SDS011;53063;39.614;8.814;2023-02-03T00:11:19;13.75;;;5.70;;
66270;SDS011;53063;39.614;8.814;2023-02-03T00:13:46;18.23;;;5.57;;
66270;SDS011;53063;39.614;8.814;2023-02-03T00:16:11;20.95;;;6.72;;
66270;SDS011;53063;39.614;8.814;2023-02-03T00:18:37;12.30;;;6.43;;
66270;SDS011;53063;39.614;8.814;2023-02-03T00:21:04;11.38;;;5.50;;
66270;SDS011;53063;39.614;8.814;2023-02-03T00:23:30;11.60;;;4.57;;
66270;SDS011;53063;39.614;8.814;2023-02-03T00:25:57;13.35;;;6.95;;
66270;SDS011;53063;39.614;8.814;2023-02-03T00:28:30;18.92;;;7.05;;
66270;SDS011;53063;39.614;8.814;2023-02-03T00:30:56;11.60;;;5.55;;
66270;SDS011;53063;39.614;8.814;2023-02-03T00:33:22;11.85;;;4.68;;
66270;SDS011;53063;39.614;8.814;2023-02-03T00:35:48;9.70;;;5.03;;
66270;SDS011;53063;39.614;8.814;2023-02-03T00:38:14;13.27;;;5.55;;
66270;SDS011;53063;39.614;8.814;2023-02-03T00:40:40;13.32;;;6.22;;
66270;SDS011;53063;39.614;8.814;2023-02-03T00:43:06;14.25;;;5.65;;
66270;SDS011;53063;39.614;8.814;2023-02-03T00:45:32;16.35;;;5.95;;
66270;SDS011;53063;39.614;8.814;2023-02-03T00:47:57;16.67;;;6.45;;
66270;SDS011;53063;39.614;8.814;2023-02-03T00:50:23;14.38;;;5.40;;
66270;SDS011;53063;39.614;8.814;2023-02-03T00:52:49;9.70;;;4.50;;
66270;SDS011;53063;39.614;8.814;2023-02-03T00:55:15;11.32;;;4.93;;
66270;SDS011;53063;39.614;8.814;2023-02-03T00:57:41;9.48;;;4.57;;
66270;SDS011;53063;39.614;8.814;2023-02-03T01:00:09;10.57;;;4.78;;
66270;SDS011;53063;39.614;8.814;2023-02-03T01:02:35;11.60;;;5.15;;
66270;SDS011;53063;39.614;8.814;2023-02-03T01:05:01;10.95;;;4.57;;
66270;SDS011;53063;39.614;8.814;2023-02-03T01:07:29;10.60;;;4.68;;
66270;SDS011;53063;39.614;8.814;2023-02-03T01:09:57;14.30;;;5.15;;
66270;SDS011;53063;39.614;8.814;2023-02-03T01:12:23;10.68;;;5.70;;
66270;SDS011;53063;39.614;8.814;2023-02-03T01:14:49;13.65;;;5.22;;
66270;SDS011;53063;39.614;8.814;2023-02-03T01:17:15;13.82;;;6.20;;
66270;SDS011;53063;39.614;8.814;2023-02-03T01:19:41;10.85;;;5.95;;
66270;SDS011;53063;39.614;8.814;2023-02-03T01:22:07;16.25;;;6.35;;
66270;SDS011;53063;39.614;8.814;2023-02-03T01:24:32;17.75;;;6.65;;
66270;SDS011;53063;39.614;8.814;2023-02-03T01:26:58;15.00;;;7.32;;
66270;SDS011;53063;39.614;8.814;2023-02-03T01:29:26;19.65;;;8.00;;
66270;SDS011;53063;39.614;8.814;2023-02-03T01:31:53;19.27;;;8.73;;
66270;SDS011;53063;39.614;8.814;2023-02-03T01:34:19;25.25;;;8.88;;
66270;SDS011;53063;39.614;8.814;2023-02-03T01:36:45;17.50;;;7.70;;
66270;SDS011;53063;39.614;8.814;2023-02-03T01:39:11;12.35;;;5.32;;
66270;SDS011;53063;39.614;8.814;2023-02-03T01:41:37;12.60;;;5.43;;
66270;SDS011;53063;39.614;8.814;2023-02-03T01:47:14;11.85;;;5.07;;
66270;SDS011;53063;39.614;8.814;2023-02-03T01:49:45;18.15;;;5.97;;
66270;SDS011;53063;39.614;8.814;2023-02-03T01:52:22;14.48;;;5.93;;
66270;SDS011;53063;39.614;8.814;2023-02-03T01:54:49;12.63;;;5.25;;
66270;SDS011;53063;39.614;8.814;2023-02-03T01:57:19;16.55;;;5.55;;
66270;SDS011;53063;39.614;8.814;2023-02-03T01:59:53;12.18;;;5.30;;
66270;SDS011;53063;39.614;8.814;2023-02-03T02:02:20;13.50;;;5.90;;
66270;SDS011;53063;39.614;8.814;2023-02-03T02:07:22;12.93;;;5.78;;
66270;SDS011;53063;39.614;8.814;2023-02-03T02:09:48;12.68;;;5.45;;
66270;SDS011;53063;39.614;8.814;2023-02-03T02:12:14;13.00;;;5.40;;
66270;SDS011;53063;39.614;8.814;2023-02-03T02:14:40;14.18;;;5.30;;
66270;SDS011;53063;39.614;8.814;2023-02-03T02:17:16;16.98;;;5.40;;
66270;SDS011;53063;39.614;8.814;2023-02-03T02:42:07;12.23;;;4.65;;
66270;SDS011;53063;39.614;8.814;2023-02-03T02:45:04;8.98;;;4.50;;
66270;SDS011;53063;39.614;8.814;2023-02-03T02:47:45;10.48;;;4.20;;
66270;SDS011;53063;39.614;8.814;2023-02-03T02:50:16;11.20;;;4.43;;
66270;SDS011;53063;39.614;8.814;2023-02-03T02:52:48;10.15;;;4.10;;
66270;SDS011;53063;39.614;8.814;2023-02-03T02:55:18;13.35;;;3.53;;
66270;SDS011;53063;39.614;8.814;2023-02-03T02:57:54;10.77;;;3.35;;
66270;SDS011;53063;39.614;8.814;2023-02-03T03:00:28;10.40;;;3.25;;
66270;SDS011;53063;39.614;8.814;2023-02-03T03:02:55;8.60;;;2.42;;
66270;SDS011;53063;39.614;8.814;2023-02-03T03:05:21;13.63;;;2.75;;
66270;SDS011;53063;39.614;8.814;2023-02-03T03:07:52;6.32;;;2.13;;
66270;SDS011;53063;39.614;8.814;2023-02-03T03:10:24;8.57;;;2.10;;
66270;SDS011;53063;39.614;8.814;2023-02-03T03:12:54;9.90;;;2.90;;
66270;SDS011;53063;39.614;8.814;2023-02-03T03:15:26;6.32;;;2.90;;
66270;SDS011;53063;39.614;8.814;2023-02-03T03:20:37;7.15;;;2.40;;
66270;SDS011;53063;39.614;8.814;2023-02-03T03:23:17;11.18;;;3.13;;
66270;SDS011;53063;39.614;8.814;2023-02-03T03:25:50;5.63;;;2.63;;
66270;SDS011;53063;39.614;8.814;2023-02-03T03:28:26;7.03;;;2.42;;
66270;SDS011;53063;39.614;8.814;2023-02-03T03:30:59;8.25;;;3.25;;
66270;SDS011;53063;39.614;8.814;2023-02-03T03:33:25;6.07;;;2.50;;
66270;SDS011;53063;39.614;8.814;2023-02-03T03:35:56;10.88;;;3.10;;
66270;SDS011;53063;39.614;8.814;2023-02-03T03:38:59;8.75;;;2.83;;
66270;SDS011;53063;39.614;8.814;2023-02-03T03:41:38;7.75;;;3.40;;
66270;SDS011;53063;39.614;8.814;2023-02-03T03:44:12;10.85;;;3.33;;
66270;SDS011;53063;39.614;8.814;2023-02-03T03:46:42;10.45;;;3.80;;
66270;SDS011;53063;39.614;8.814;2023-02-03T03:49:14;10.85;;;3.72;;
66270;SDS011;53063;39.614;8.814;2023-02-03T03:51:55;8.27;;;3.45;;
66270;SDS011;53063;39.614;8.814;2023-02-03T03:54:26;8.50;;;3.28;;
66270;SDS011;53063;39.614;8.814;2023-02-03T03:56:57;10.40;;;3.92;;
66270;SDS011;53063;39.614;8.814;2023-02-03T03:59:29;13.88;;;3.78;;
66270;SDS011;53063;39.614;8.814;2023-02-03T04:01:58;7.57;;;3.30;;
66270;SDS011;53063;39.614;8.814;2023-02-03T04:04:28;5.95;;;2.90;;
66270;SDS011;53063;39.614;8.814;2023-02-03T04:07:00;8.88;;;3.33;;
66270;SDS011;53063;39.614;8.814;2023-02-03T04:09:26;14.93;;;3.90;;
66270;SDS011;53063;39.614;8.814;2023-02-03T04:11:52;12.13;;;3.95;;
66270;SDS011;53063;39.614;8.814;2023-02-03T04:14:28;9.60;;;3.72;;
66270;SDS011;53063;39.614;8.814;2023-02-03T04:16:55;12.85;;;4.32;;
66270;SDS011;53063;39.614;8.814;2023-02-03T04:19:24;13.15;;;4.50;;
66270;SDS011;53063;39.614;8.814;2023-02-03T04:21:51;10.27;;;4.38;;
66270;SDS011;53063;39.614;8.814;2023-02-03T04:24:17;11.15;;;4.20;;
66270;SDS011;53063;39.614;8.814;2023-02-03T04:26:43;11.57;;;3.85;;
66270;SDS011;53063;39.614;8.814;2023-02-03T04:29:09;11.57;;;3.60;;
66270;SDS011;53063;39.614;8.814;2023-02-03T04:31:35;9.20;;;2.92;;
66270;SDS011;53063;39.614;8.814;2023-02-03T04:34:02;11.07;;;3.22;;
66270;SDS011;53063;39.614;8.814;2023-02-03T04:36:28;6.88;;;4.03;;
66270;SDS011;53063;39.614;8.814;2023-02-03T04:38:54;9.43;;;3.55;;
66270;SDS011;53063;39.614;8.814;2023-02-03T04:41:20;15.27;;;3.83;;
66270;SDS011;53063;39.614;8.814;2023-02-03T04:43:46;12.30;;;3.10;;
66270;SDS011;53063;39.614;8.814;2023-02-03T04:46:12;7.55;;;3.15;;
66270;SDS011;53063;39.614;8.814;2023-02-03T04:48:38;11.32;;;3.13;;
66270;SDS011;53063;39.614;8.814;2023-02-03T04:51:05;10.60;;;3.00;;
66270;SDS011;53063;39.614;8.814;2023-02-03T04:53:32;7.28;;;3.47;;
66270;SDS011;53063;39.614;8.814;2023-02-03T04:55:59;8.85;;;3.20;;
66270;SDS011;53063;39.614;8.814;2023-02-03T04:58:25;10.77;;;3.17;;
66270;SDS011;53063;39.614;8.814;2023-02-03T05:00:51;12.13;;;4.38;;
66270;SDS011;53063;39.614;8.814;2023-02-03T05:03:18;12.88;;;5.07;;
66270;SDS011;53063;39.614;8.814;2023-02-03T05:05:44;10.82;;;4.57;;
66270;SDS011;53063;39.614;8.814;2023-02-03T05:08:09;18.35;;;5.80;;
66270;SDS011;53063;39.614;8.814;2023-02-03T05:10:35;12.48;;;4.25;;
66270;SDS011;53063;39.614;8.814;2023-02-03T05:13:01;10.82;;;4.95;;
66270;SDS011;53063;39.614;8.814;2023-02-03T05:15:27;11.35;;;3.42;;
66270;SDS011;53063;39.614;8.814;2023-02-03T05:17:54;11.63;;;4.20;;
66270;SDS011;53063;39.614;8.814;2023-02-03T05:20:20;11.88;;;3.90;;
66270;SDS011;53063;39.614;8.814;2023-02-03T05:22:46;6.28;;;3.70;;
66270;SDS011;53063;39.614;8.814;2023-02-03T05:25:12;10.50;;;3.97;;
66270;SDS011;53063;39.614;8.814;2023-02-03T05:27:39;7.40;;;4.05;;
66270;SDS011;53063;39.614;8.814;2023-02-03T05:30:06;28.73;;;11.18;;
66270;SDS011;53063;39.614;8.814;2023-02-03T05:32:33;22.80;;;9.85;;
66270;SDS011;53063;39.614;8.814;2023-02-03T05:34:59;19.88;;;8.88;;
66270;SDS011;53063;39.614;8.814;2023-02-03T05:37:25;19.80;;;10.05;;
66270;SDS011;53063;39.614;8.814;2023-02-03T05:39:51;22.50;;;9.80;;
66270;SDS011;53063;39.614;8.814;2023-02-03T05:42:17;24.95;;;9.55;;
66270;SDS011;53063;39.614;8.814;2023-02-03T05:44:43;26.65;;;13.68;;
66270;SDS011;53063;39.614;8.814;2023-02-03T05:47:09;34.58;;;16.85;;
66270;SDS011;53063;39.614;8.814;2023-02-03T05:49:35;31.15;;;12.35;;
66270;SDS011;53063;39.614;8.814;2023-02-03T05:52:01;27.10;;;11.60;;
66270;SDS011;53063;39.614;8.814;2023-02-03T05:54:26;20.55;;;6.63;;
66270;SDS011;53063;39.614;8.814;2023-02-03T05:56:52;10.20;;;5.10;;
66270;SDS011;53063;39.614;8.814;2023-02-03T05:59:18;14.00;;;6.28;;
66270;SDS011;53063;39.614;8.814;2023-02-03T06:01:44;12.23;;;5.40;;
66270;SDS011;53063;39.614;8.814;2023-02-03T06:04:10;9.43;;;5.90;;
66270;SDS011;53063;39.614;8.814;2023-02-03T06:06:36;12.25;;;6.55;;
66270;SDS011;53063;39.614;8.814;2023-02-03T06:09:03;17.27;;;6.85;;
66270;SDS011;53063;39.614;8.814;2023-02-03T06:11:31;15.95;;;6.75;;
66270;SDS011;53063;39.614;8.814;2023-02-03T06:13:57;12.30;;;6.53;;
66270;SDS011;53063;39.614;8.814;2023-02-03T06:16:27;36.42;;;14.85;;
66270;SDS011;53063;39.614;8.814;2023-02-03T06:18:54;34.42;;;15.90;;
66270;SDS011;53063;39.614;8.814;2023-02-03T06:21:25;49.35;;;17.60;;
66270;SDS011;53063;39.614;8.814;2023-02-03T06:23:51;52.33;;;20.02;;
66270;SDS011;53063;39.614;8.814;2023-02-03T06:26:16;51.25;;;19.17;;
66270;SDS011;53063;39.614;8.814;2023-02-03T06:28:42;42.13;;;17.17;;
66270;SDS011;53063;39.614;8.814;2023-02-03T06:31:08;49.47;;;17.58;;
66270;SDS011;53063;39.614;8.814;2023-02-03T06:33:34;40.95;;;17.27;;
66270;SDS011;53063;39.614;8.814;2023-02-03T06:36:00;43.13;;;16.38;;
66270;SDS011;53063;39.614;8.814;2023-02-03T06:38:26;28.70;;;14.20;;
66270;SDS011;53063;39.614;8.814;2023-02-03T06:40:52;30.48;;;14.13;;
66270;SDS011;53063;39.614;8.814;2023-02-03T06:43:18;35.63;;;14.50;;
66270;SDS011;53063;39.614;8.814;2023-02-03T06:45:44;32.53;;;14.60;;
66270;SDS011;53063;39.614;8.814;2023-02-03T06:48:13;33.53;;;13.85;;
66270;SDS011;53063;39.614;8.814;2023-02-03T06:50:39;27.90;;;13.25;;
66270;SDS011;53063;39.614;8.814;2023-02-03T06:53:05;24.95;;;11.52;;
66270;SDS011;53063;39.614;8.814;2023-02-03T06:55:31;26.13;;;12.15;;
66270;SDS011;53063;39.614;8.814;2023-02-03T06:57:57;25.52;;;13.02;;
66270;SDS011;53063;39.614;8.814;2023-02-03T07:00:23;27.40;;;12.43;;
66270;SDS011;53063;39.614;8.814;2023-02-03T07:02:55;25.77;;;12.52;;
66270;SDS011;53063;39.614;8.814;2023-02-03T07:05:24;29.30;;;13.43;;
66270;SDS011;53063;39.614;8.814;2023-02-03T07:07:51;30.65;;;13.85;;
66270;SDS011;53063;39.614;8.814;2023-02-03T07:10:18;28.00;;;14.38;;
66270;SDS011;53063;39.614;8.814;2023-02-03T07:12:44;34.25;;;13.75;;
66270;SDS011;53063;39.614;8.814;2023-02-03T07:15:11;26.83;;;12.32;;
66270;SDS011;53063;39.614;8.814;2023-02-03T07:17:37;21.55;;;11.23;;
66270;SDS011;53063;39.614;8.814;2023-02-03T07:20:03;36.30;;;16.05;;
66270;SDS011;53063;39.614;8.814;2023-02-03T07:22:30;40.70;;;17.05;;
66270;SDS011;53063;39.614;8.814;2023-02-03T07:24:56;47.92;;;20.50;;
66270;SDS011;53063;39.614;8.814;2023-02-03T07:27:21;50.42;;;24.70;;
66270;SDS011;53063;39.614;8.814;2023-02-03T07:29:47;47.92;;;24.27;;
66270;SDS011;53063;39.614;8.814;2023-02-03T07:32:13;35.05;;;19.25;;
66270;SDS011;53063;39.614;8.814;2023-02-03T07:34:39;42.47;;;18.70;;
66270;SDS011;53063;39.614;8.814;2023-02-03T07:37:05;41.60;;;19.65;;
66270;SDS011;53063;39.614;8.814;2023-02-03T07:39:31;35.00;;;17.92;;
66270;SDS011;53063;39.614;8.814;2023-02-03T07:41:58;43.88;;;21.95;;
66270;SDS011;53063;39.614;8.814;2023-02-03T07:44:26;55.53;;;26.00;;
66270;SDS011;53063;39.614;8.814;2023-02-03T07:46:52;55.75;;;27.58;;
66270;SDS011;53063;39.614;8.814;2023-02-03T07:49:18;66.07;;;29.85;;
66270;SDS011;53063;39.614;8.814;2023-02-03T07:51:44;64.00;;;29.67;;
66270;SDS011;53063;39.614;8.814;2023-02-03T07:54:10;44.95;;;21.23;;
66270;SDS011;53063;39.614;8.814;2023-02-03T07:56:36;38.45;;;18.27;;
66270;SDS011;53063;39.614;8.814;2023-02-03T07:59:02;45.83;;;20.83;;
66270;SDS011;53063;39.614;8.814;2023-02-03T08:01:28;40.70;;;15.40;;
66270;SDS011;53063;39.614;8.814;2023-02-03T08:03:55;29.95;;;10.43;;
66270;SDS011;53063;39.614;8.814;2023-02-03T08:06:21;35.72;;;14.73;;
66270;SDS011;53063;39.614;8.814;2023-02-03T08:08:47;50.15;;;18.60;;
66270;SDS011;53063;39.614;8.814;2023-02-03T08:11:13;50.35;;;18.70;;
66270;SDS011;53063;39.614;8.814;2023-02-03T08:13:39;52.15;;;19.23;;
66270;SDS011;53063;39.614;8.814;2023-02-03T08:16:05;37.03;;;13.52;;
66270;SDS011;53063;39.614;8.814;2023-02-03T08:18:31;26.30;;;9.10;;
66270;SDS011;53063;39.614;8.814;2023-02-03T08:20:57;21.33;;;6.78;;
66270;SDS011;53063;39.614;8.814;2023-02-03T08:23:23;21.05;;;6.60;;
66270;SDS011;53063;39.614;8.814;2023-02-03T08:38:17;9.00;;;4.63;;
66270;SDS011;53063;39.614;8.814;2023-02-03T08:40:43;14.10;;;3.78;;
66270;SDS011;53063;39.614;8.814;2023-02-03T08:43:09;22.75;;;9.50;;
66270;SDS011;53063;39.614;8.814;2023-02-03T08:45:35;16.58;;;5.50;;
66270;SDS011;53063;39.614;8.814;2023-02-03T08:48:01;12.32;;;5.75;;
66270;SDS011;53063;39.614;8.814;2023-02-03T08:50:27;15.60;;;5.10;;
66270;SDS011;53063;39.614;8.814;2023-02-03T08:52:53;12.85;;;5.72;;
66270;SDS011;53063;39.614;8.814;2023-02-03T08:55:19;13.30;;;6.07;;
66270;SDS011;53063;39.614;8.814;2023-02-03T08:57:45;12.60;;;7.80;;
66270;SDS011;53063;39.614;8.814;2023-02-03T09:00:11;14.68;;;7.00;;
66270;SDS011;53063;39.614;8.814;2023-02-03T09:02:37;14.60;;;4.45;;
66270;SDS011;53063;39.614;8.814;2023-02-03T09:05:03;5.90;;;2.20;;
66270;SDS011;53063;39.614;8.814;2023-02-03T09:07:29;8.60;;;2.50;;
66270;SDS011;53063;39.614;8.814;2023-02-03T09:09:55;10.02;;;3.42;;
66270;SDS011;53063;39.614;8.814;2023-02-03T09:12:21;7.30;;;2.80;;
66270;SDS011;53063;39.614;8.814;2023-02-03T09:14:47;9.68;;;3.55;;
66270;SDS011;53063;39.614;8.814;2023-02-03T09:17:13;8.75;;;4.07;;
66270;SDS011;53063;39.614;8.814;2023-02-03T09:19:39;10.50;;;5.93;;
66270;SDS011;53063;39.614;8.814;2023-02-03T09:22:04;9.88;;;3.50;;
66270;SDS011;53063;39.614;8.814;2023-02-03T09:24:30;6.22;;;3.10;;
66270;SDS011;53063;39.614;8.814;2023-02-03T09:26:56;8.32;;;2.75;;
66270;SDS011;53063;39.614;8.814;2023-02-03T09:29:22;5.78;;;2.45;;
66270;SDS011;53063;39.614;8.814;2023-02-03T09:31:48;7.15;;;2.70;;
66270;SDS011;53063;39.614;8.814;2023-02-03T09:34:18;9.40;;;3.08;;
66270;SDS011;53063;39.614;8.814;2023-02-03T09:36:45;9.35;;;3.92;;
66270;SDS011;53063;39.614;8.814;2023-02-03T09:39:11;9.23;;;5.32;;
66270;SDS011;53063;39.614;8.814;2023-02-03T09:44:32;9.32;;;2.97;;
66270;SDS011;53063;39.614;8.814;2023-02-03T09:47:16;7.63;;;2.58;;
66270;SDS011;53063;39.614;8.814;2023-02-03T09:49:46;38.03;;;23.25;;
66270;SDS011;53063;39.614;8.814;2023-02-03T09:52:19;5.03;;;2.33;;
66270;SDS011;53063;39.614;8.814;2023-02-03T10:00:58;5.88;;;2.35;;
66270;SDS011;53063;39.614;8.814;2023-02-03T10:22:27;4.05;;;1.98;;
66270;SDS011;53063;39.614;8.814;2023-02-03T10:27:40;7.68;;;2.85;;
66270;SDS011;53063;39.614;8.814;2023-02-03T10:30:21;9.48;;;2.60;;
66270;SDS011;53063;39.614;8.814;2023-02-03T10:32:48;8.82;;;2.45;;
66270;SDS011;53063;39.614;8.814;2023-02-03T10:35:49;6.13;;;1.85;;
66270;SDS011;53063;39.614;8.814;2023-02-03T10:41:17;8.38;;;3.17;;
66270;SDS011;53063;39.614;8.814;2023-02-03T10:43:45;5.38;;;2.00;;
66270;SDS011;53063;39.614;8.814;2023-02-03T10:46:12;7.90;;;2.58;;
66270;SDS011;53063;39.614;8.814;2023-02-03T10:48:45;8.23;;;2.20;;
66270;SDS011;53063;39.614;8.814;2023-02-03T10:51:28;6.97;;;2.33;;
66270;SDS011;53063;39.614;8.814;2023-02-03T10:53:59;7.90;;;2.28;;
66270;SDS011;53063;39.614;8.814;2023-02-03T10:58:56;6.47;;;2.17;;
66270;SDS011;53063;39.614;8.814;2023-02-03T11:01:24;9.73;;;2.67;;
66270;SDS011;53063;39.614;8.814;2023-02-03T11:04:24;6.93;;;2.70;;
66270;SDS011;53063;39.614;8.814;2023-02-03T11:06:56;6.75;;;2.33;;
66270;SDS011;53063;39.614;8.814;2023-02-03T11:09:33;8.55;;;2.42;;
66270;SDS011;53063;39.614;8.814;2023-02-03T11:12:13;10.90;;;3.75;;
66270;SDS011;53063;39.614;8.814;2023-02-03T11:14:42;8.57;;;3.45;;
66270;SDS011;53063;39.614;8.814;2023-02-03T11:17:19;8.18;;;2.97;;
66270;SDS011;53063;39.614;8.814;2023-02-03T11:20:03;6.38;;;1.88;;
66270;SDS011;53063;39.614;8.814;2023-02-03T11:22:39;13.38;;;4.82;;
66270;SDS011;53063;39.614;8.814;2023-02-03T11:25:21;7.22;;;2.50;;
66270;SDS011;53063;39.614;8.814;2023-02-03T11:27:52;8.43;;;3.38;;
66270;SDS011;53063;39.614;8.814;2023-02-03T11:30:26;41.08;;;4.57;;
66270;SDS011;53063;39.614;8.814;2023-02-03T11:32:56;5.38;;;2.38;;
66270;SDS011;53063;39.614;8.814;2023-02-03T11:35:27;14.82;;;4.72;;
66270;SDS011;53063;39.614;8.814;2023-02-03T11:37:56;12.15;;;2.90;;
66270;SDS011;53063;39.614;8.814;2023-02-03T11:40:25;9.90;;;4.05;;
66270;SDS011;53063;39.614;8.814;2023-02-03T11:53:26;6.70;;;2.10;;
66270;SDS011;53063;39.614;8.814;2023-02-03T11:56:07;5.75;;;1.70;;
66270;SDS011;53063;39.614;8.814;2023-02-03T12:18:32;7.47;;;2.92;;
66270;SDS011;53063;39.614;8.814;2023-02-03T12:21:29;7.63;;;2.70;;
66270;SDS011;53063;39.614;8.814;2023-02-03T12:24:41;5.28;;;1.85;;
66270;SDS011;53063;39.614;8.814;2023-02-03T12:30:01;7.28;;;1.95;;
66270;SDS011;53063;39.614;8.814;2023-02-03T12:32:50;4.57;;;1.58;;
66270;SDS011;53063;39.614;8.814;2023-02-03T12:35:33;10.30;;;3.30;;
66270;SDS011;53063;39.614;8.814;2023-02-03T12:38:15;8.90;;;3.28;;
66270;SDS011;53063;39.614;8.814;2023-02-03T12:40:58;12.10;;;5.53;;
66270;SDS011;53063;39.614;8.814;2023-02-03T12:46:03;18.63;;;7.53;;
66270;SDS011;53063;39.614;8.814;2023-02-03T12:51:12;7.80;;;3.23;;
66270;SDS011;53063;39.614;8.814;2023-02-03T12:53:46;31.20;;;13.13;;
66270;SDS011;53063;39.614;8.814;2023-02-03T12:59:01;12.20;;;5.18;;
66270;SDS011;53063;39.614;8.814;2023-02-03T13:01:34;19.17;;;9.35;;
66270;SDS011;53063;39.614;8.814;2023-02-03T13:17:26;10.82;;;3.90;;
66270;SDS011;53063;39.614;8.814;2023-02-03T13:19:59;6.65;;;3.38;;
66270;SDS011;53063;39.614;8.814;2023-02-03T13:22:31;6.53;;;1.55;;
66270;SDS011;53063;39.614;8.814;2023-02-03T13:41:47;7.07;;;2.45;;
66270;SDS011;53063;39.614;8.814;2023-02-03T13:44:33;9.90;;;4.93;;
66270;SDS011;53063;39.614;8.814;2023-02-03T13:47:01;10.77;;;4.40;;
66270;SDS011;53063;39.614;8.814;2023-02-03T13:49:28;7.63;;;3.05;;
66270;SDS011;53063;39.614;8.814;2023-02-03T13:51:57;8.18;;;4.15;;
66270;SDS011;53063;39.614;8.814;2023-02-03T13:54:26;10.25;;;4.05;;
66270;SDS011;53063;39.614;8.814;2023-02-03T13:56:57;14.45;;;6.45;;
66270;SDS011;53063;39.614;8.814;2023-02-03T13:59:39;7.75;;;3.53;;
66270;SDS011;53063;39.614;8.814;2023-02-03T14:10:04;6.97;;;2.33;;
66270;SDS011;53063;39.614;8.814;2023-02-03T14:12:33;9.23;;;2.47;;
66270;SDS011;53063;39.614;8.814;2023-02-03T14:20:43;9.13;;;2.50;;
66270;SDS011;53063;39.614;8.814;2023-02-03T14:23:26;6.93;;;2.47;;
66270;SDS011;53063;39.614;8.814;2023-02-03T14:25:58;5.90;;;1.70;;
66270;SDS011;53063;39.614;8.814;2023-02-03T14:28:35;14.65;;;2.97;;
66270;SDS011;53063;39.614;8.814;2023-02-03T14:47:07;13.52;;;3.97;;
66270;SDS011;53063;39.614;8.814;2023-02-03T14:58:12;12.23;;;4.30;;
66270;SDS011;53063;39.614;8.814;2023-02-03T15:00:46;8.30;;;2.50;;
66270;SDS011;53063;39.614;8.814;2023-02-03T15:03:15;13.77;;;3.47;;
66270;SDS011;53063;39.614;8.814;2023-02-03T15:05:54;15.18;;;5.30;;
66270;SDS011;53063;39.614;8.814;2023-02-03T15:10:57;23.33;;;3.65;;
66270;SDS011;53063;39.614;8.814;2023-02-03T15:16:13;13.98;;;3.60;;
66270;SDS011;53063;39.614;8.814;2023-02-03T15:18:39;8.52;;;2.60;;
66270;SDS011;53063;39.614;8.814;2023-02-03T15:21:05;10.90;;;2.40;;
66270;SDS011;53063;39.614;8.814;2023-02-03T15:23:40;5.53;;;2.35;;
66270;SDS011;53063;39.614;8.814;2023-02-03T15:26:15;11.15;;;2.17;;
66270;SDS011;53063;39.614;8.814;2023-02-03T15:28:52;10.45;;;2.22;;
66270;SDS011;53063;39.614;8.814;2023-02-03T15:31:34;11.40;;;2.97;;
66270;SDS011;53063;39.614;8.814;2023-02-03T15:34:05;8.35;;;2.75;;
66270;SDS011;53063;39.614;8.814;2023-02-03T15:36:53;10.07;;;2.63;;
66270;SDS011;53063;39.614;8.814;2023-02-03T15:39:36;7.50;;;3.00;;
66270;SDS011;53063;39.614;8.814;2023-02-03T15:42:11;11.82;;;2.95;;
66270;SDS011;53063;39.614;8.814;2023-02-03T15:45:37;8.18;;;2.15;;
66270;SDS011;53063;39.614;8.814;2023-02-03T15:50:31;6.88;;;3.00;;
66270;SDS011;53063;39.614;8.814;2023-02-03T15:53:08;6.18;;;2.60;;
66270;SDS011;53063;39.614;8.814;2023-02-03T15:55:46;17.95;;;6.68;;
66270;SDS011;53063;39.614;8.814;2023-02-03T15:58:19;9.20;;;3.35;;
66270;SDS011;53063;39.614;8.814;2023-02-03T16:01:08;7.65;;;2.30;;
66270;SDS011;53063;39.614;8.814;2023-02-03T16:03:38;16.15;;;5.38;;
66270;SDS011;53063;39.614;8.814;2023-02-03T16:06:15;13.85;;;5.22;;
66270;SDS011;53063;39.614;8.814;2023-02-03T16:08:52;8.32;;;3.63;;
66270;SDS011;53063;39.614;8.814;2023-02-03T16:11:37;14.40;;;5.38;;
66270;SDS011;53063;39.614;8.814;2023-02-03T16:14:21;12.85;;;4.50;;
66270;SDS011;53063;39.614;8.814;2023-02-03T16:16:57;12.45;;;3.95;;
66270;SDS011;53063;39.614;8.814;2023-02-03T16:19:23;13.98;;;4.28;;
66270;SDS011;53063;39.614;8.814;2023-02-03T16:21:56;13.85;;;3.88;;
66270;SDS011;53063;39.614;8.814;2023-02-03T16:29:49;13.90;;;3.72;;
66270;SDS011;53063;39.614;8.814;2023-02-03T16:35:56;9.23;;;3.17;;
66270;SDS011;53063;39.614;8.814;2023-02-03T16:38:44;12.82;;;6.03;;
66270;SDS011;53063;39.614;8.814;2023-02-03T16:41:28;16.58;;;8.18;;
66270;SDS011;53063;39.614;8.814;2023-02-03T16:44:14;27.92;;;13.13;;
66270;SDS011;53063;39.614;8.814;2023-02-03T16:46:58;29.52;;;15.15;;
66270;SDS011;53063;39.614;8.814;2023-02-03T16:49:43;39.88;;;15.98;;
66270;SDS011;53063;39.614;8.814;2023-02-03T16:52:27;20.80;;;10.48;;
66270;SDS011;53063;39.614;8.814;2023-02-03T16:54:53;17.15;;;8.82;;
66270;SDS011;53063;39.614;8.814;2023-02-03T16:57:19;14.90;;;6.72;;
66270;SDS011;53063;39.614;8.814;2023-02-03T16:59:45;15.40;;;7.25;;
66270;SDS011;53063;39.614;8.814;2023-02-03T17:02:11;11.90;;;6.60;;
66270;SDS011;53063;39.614;8.814;2023-02-03T17:04:37;16.13;;;7.38;;
66270;SDS011;53063;39.614;8.814;2023-02-03T17:07:03;25.92;;;8.23;;
66270;SDS011;53063;39.614;8.814;2023-02-03T17:09:29;25.42;;;11.10;;
66270;SDS011;53063;39.614;8.814;2023-02-03T17:11:59;23.00;;;10.13;;
66270;SDS011;53063;39.614;8.814;2023-02-03T17:14:26;29.52;;;12.25;;
66270;SDS011;53063;39.614;8.814;2023-02-03T17:16:52;19.98;;;9.68;;
66270;SDS011;53063;39.614;8.814;2023-02-03T17:19:18;22.55;;;12.23;;
66270;SDS011;53063;39.614;8.814;2023-02-03T17:21:44;35.10;;;15.73;;
66270;SDS011;53063;39.614;8.814;2023-02-03T17:24:11;29.75;;;13.48;;
66270;SDS011;53063;39.614;8.814;2023-02-03T17:26:38;44.10;;;20.38;;
66270;SDS011;53063;39.614;8.814;2023-02-03T17:29:04;37.72;;;18.95;;
66270;SDS011;53063;39.614;8.814;2023-02-03T17:31:30;43.70;;;18.52;;
66270;SDS011;53063;39.614;8.814;2023-02-03T17:33:56;55.53;;;24.02;;
66270;SDS011;53063;39.614;8.814;2023-02-03T17:36:22;83.75;;;32.80;;
66270;SDS011;53063;39.614;8.814;2023-02-03T17:38:50;52.10;;;20.42;;
66270;SDS011;53063;39.614;8.814;2023-02-03T17:41:24;24.00;;;9.07;;
66270;SDS011;53063;39.614;8.814;2023-02-03T17:43:51;22.02;;;8.07;;
66270;SDS011;53063;39.614;8.814;2023-02-03T17:46:19;14.43;;;8.25;;
66270;SDS011;53063;39.614;8.814;2023-02-03T17:48:46;16.20;;;7.45;;
66270;SDS011;53063;39.614;8.814;2023-02-03T17:51:13;18.17;;;8.27;;
66270;SDS011;53063;39.614;8.814;2023-02-03T17:53:42;20.73;;;10.85;;
66270;SDS011;53063;39.614;8.814;2023-02-03T17:56:12;21.10;;;10.07;;
66270;SDS011;53063;39.614;8.814;2023-02-03T17:58:40;33.90;;;12.43;;
66270;SDS011;53063;39.614;8.814;2023-02-03T18:01:08;19.35;;;8.90;;
66270;SDS011;53063;39.614;8.814;2023-02-03T18:03:59;20.67;;;8.80;;
66270;SDS011;53063;39.614;8.814;2023-02-03T18:06:26;17.88;;;8.32;;
66270;SDS011;53063;39.614;8.814;2023-02-03T18:08:54;30.48;;;12.48;;
66270;SDS011;53063;39.614;8.814;2023-02-03T18:11:25;36.88;;;16.52;;
66270;SDS011;53063;39.614;8.814;2023-02-03T18:13:55;28.40;;;12.75;;
66270;SDS011;53063;39.614;8.814;2023-02-03T18:16:23;17.65;;;8.05;;
66270;SDS011;53063;39.614;8.814;2023-02-03T18:18:52;22.67;;;10.68;;